sensor_id;sensor_type;location;lat;lon;timestamp;pressure;altitude;pressure_sealevel;temperature;humidity
65758;BME280;52495;52.208;5.158;2022-08-19T00:00:50;101314.03;;;18.50;80.63
65758;BME280;52495;52.208;5.158;2022-08-19T00:03:16;101315.81;;;18.49;80.64
65758;BME280;52495;52.208;5.158;2022-08-19T00:05:43;101307.84;;;18.53;80.09
65758;BME280;52495;52.208;5.158;2022-08-19T00:08:10;101309.78;;;18.47;80.49
65758;BME280;52495;52.208;5.158;2022-08-19T00:10:36;101309.00;;;18.45;80.67
65758;BME280;52495;52.208;5.158;2022-08-19T00:13:05;101310.63;;;18.48;80.37
65758;BME280;52495;52.208;5.158;2022-08-19T00:15:32;101313.19;;;18.49;80.14
65758;BME280;52495;52.208;5.158;2022-08-19T00:17:58;101319.34;;;18.48;79.94
65758;BME280;52495;52.208;5.158;2022-08-19T00:20:25;101327.97;;;18.50;79.55
65758;BME280;52495;52.208;5.158;2022-08-19T00:22:52;101327.09;;;18.50;79.29
65758;BME280;52495;52.208;5.158;2022-08-19T00:25:19;101324.50;;;18.50;79.14
65758;BME280;52495;52.208;5.158;2022-08-19T00:27:46;101320.38;;;18.44;79.40
65758;BME280;52495;52.208;5.158;2022-08-19T00:30:14;101323.97;;;18.42;79.20
65758;BME280;52495;52.208;5.158;2022-08-19T00:32:41;101314.47;;;18.39;79.36
65758;BME280;52495;52.208;5.158;2022-08-19T00:35:08;101321.63;;;18.35;79.29
65758;BME280;52495;52.208;5.158;2022-08-19T00:37:36;101308.16;;;18.24;79.49
65758;BME280;52495;52.208;5.158;2022-08-19T00:40:05;101300.63;;;18.16;80.31
65758;BME280;52495;52.208;5.158;2022-08-19T00:42:33;101314.94;;;18.08;80.88
65758;BME280;52495;52.208;5.158;2022-08-19T00:44:59;101299.19;;;18.09;80.92
65758;BME280;52495;52.208;5.158;2022-08-19T00:47:27;101314.78;;;18.11;80.96
65758;BME280;52495;52.208;5.158;2022-08-19T00:49:57;101312.25;;;18.09;80.63
65758;BME280;52495;52.208;5.158;2022-08-19T00:52:27;101308.84;;;18.07;80.79
65758;BME280;52495;52.208;5.158;2022-08-19T00:54:56;101306.22;;;18.07;80.77
65758;BME280;52495;52.208;5.158;2022-08-19T00:57:27;101308.91;;;18.05;80.64
65758;BME280;52495;52.208;5.158;2022-08-19T00:59:57;101312.50;;;18.03;80.46
65758;BME280;52495;52.208;5.158;2022-08-19T01:02:25;101309.94;;;18.01;80.52
65758;BME280;52495;52.208;5.158;2022-08-19T01:04:55;101312.50;;;18.03;80.30
65758;BME280;52495;52.208;5.158;2022-08-19T01:07:22;101311.66;;;18.02;80.08
65758;BME280;52495;52.208;5.158;2022-08-19T01:09:50;101304.72;;;18.01;80.21
65758;BME280;52495;52.208;5.158;2022-08-19T01:12:17;101313.47;;;18.00;80.08
65758;BME280;52495;52.208;5.158;2022-08-19T01:14:45;101319.63;;;17.99;80.13
65758;BME280;52495;52.208;5.158;2022-08-19T01:17:14;101318.00;;;17.95;79.73
65758;BME280;52495;52.208;5.158;2022-08-19T01:19:43;101303.44;;;17.89;79.97
65758;BME280;52495;52.208;5.158;2022-08-19T01:22:16;101315.78;;;17.86;80.25
65758;BME280;52495;52.208;5.158;2022-08-19T01:24:46;101310.66;;;17.83;80.67
65758;BME280;52495;52.208;5.158;2022-08-19T01:27:13;101310.84;;;17.78;81.10
65758;BME280;52495;52.208;5.158;2022-08-19T01:29:42;101314.31;;;17.79;81.13
65758;BME280;52495;52.208;5.158;2022-08-19T01:32:12;101323.19;;;17.74;81.41
65758;BME280;52495;52.208;5.158;2022-08-19T01:34:40;101323.25;;;17.73;81.73
65758;BME280;52495;52.208;5.158;2022-08-19T01:37:12;101319.91;;;17.69;82.07
65758;BME280;52495;52.208;5.158;2022-08-19T01:39:40;101318.13;;;17.70;82.41
65758;BME280;52495;52.208;5.158;2022-08-19T01:42:09;101326.72;;;17.73;82.07
65758;BME280;52495;52.208;5.158;2022-08-19T01:44:38;101319.72;;;17.74;81.96
65758;BME280;52495;52.208;5.158;2022-08-19T01:47:05;101319.53;;;17.79;81.72
65758;BME280;52495;52.208;5.158;2022-08-19T01:49:32;101319.50;;;17.80;81.35
65758;BME280;52495;52.208;5.158;2022-08-19T01:52:04;101322.09;;;17.80;81.00
65758;BME280;52495;52.208;5.158;2022-08-19T01:54:31;101326.47;;;17.80;81.11
65758;BME280;52495;52.208;5.158;2022-08-19T01:57:01;101330.06;;;17.77;80.69
65758;BME280;52495;52.208;5.158;2022-08-19T01:59:31;101327.56;;;17.74;80.80
65758;BME280;52495;52.208;5.158;2022-08-19T02:01:59;101327.75;;;17.69;80.76
65758;BME280;52495;52.208;5.158;2022-08-19T02:04:25;101337.63;;;17.61;81.12
65758;BME280;52495;52.208;5.158;2022-08-19T02:06:52;101333.47;;;17.57;81.32
65758;BME280;52495;52.208;5.158;2022-08-19T02:09:19;101334.50;;;17.51;81.47
65758;BME280;52495;52.208;5.158;2022-08-19T02:11:46;101335.38;;;17.52;81.77
65758;BME280;52495;52.208;5.158;2022-08-19T02:14:13;101330.16;;;17.52;81.46
65758;BME280;52495;52.208;5.158;2022-08-19T02:16:41;101337.91;;;17.53;81.21
65758;BME280;52495;52.208;5.158;2022-08-19T02:19:07;101336.22;;;17.52;81.41
65758;BME280;52495;52.208;5.158;2022-08-19T02:21:36;101337.13;;;17.51;81.06
65758;BME280;52495;52.208;5.158;2022-08-19T02:24:03;101339.75;;;17.51;81.02
65758;BME280;52495;52.208;5.158;2022-08-19T02:26:31;101334.66;;;17.48;80.91
65758;BME280;52495;52.208;5.158;2022-08-19T02:28:58;101335.69;;;17.44;81.00
65758;BME280;52495;52.208;5.158;2022-08-19T02:31:26;101329.78;;;17.39;81.49
65758;BME280;52495;52.208;5.158;2022-08-19T02:33:55;101335.00;;;17.39;81.40
65758;BME280;52495;52.208;5.158;2022-08-19T02:36:24;101332.44;;;17.37;81.49
65758;BME280;52495;52.208;5.158;2022-08-19T02:38:50;101343.00;;;17.34;81.43
65758;BME280;52495;52.208;5.158;2022-08-19T02:41:20;101345.63;;;17.34;81.97
65758;BME280;52495;52.208;5.158;2022-08-19T02:43:47;101331.66;;;17.35;81.94
65758;BME280;52495;52.208;5.158;2022-08-19T02:46:16;101330.13;;;17.29;81.81
65758;BME280;52495;52.208;5.158;2022-08-19T02:48:46;101327.81;;;17.22;82.16
65758;BME280;52495;52.208;5.158;2022-08-19T02:51:18;101327.94;;;17.19;82.41
65758;BME280;52495;52.208;5.158;2022-08-19T02:53:45;101326.00;;;17.24;82.42
65758;BME280;52495;52.208;5.158;2022-08-19T02:56:12;101324.16;;;17.26;82.36
65758;BME280;52495;52.208;5.158;2022-08-19T02:58:39;101319.88;;;17.25;82.63
65758;BME280;52495;52.208;5.158;2022-08-19T03:01:07;101306.97;;;17.20;82.83
65758;BME280;52495;52.208;5.158;2022-08-19T03:03:34;101311.34;;;17.20;82.99
65758;BME280;52495;52.208;5.158;2022-08-19T03:06:06;101308.66;;;17.23;82.67
65758;BME280;52495;52.208;5.158;2022-08-19T03:08:35;101307.78;;;17.22;82.54
65758;BME280;52495;52.208;5.158;2022-08-19T03:11:03;101313.09;;;17.19;82.48
65758;BME280;52495;52.208;5.158;2022-08-19T03:13:31;101315.78;;;17.18;82.60
65758;BME280;52495;52.208;5.158;2022-08-19T03:15:58;101315.72;;;17.19;82.38
65758;BME280;52495;52.208;5.158;2022-08-19T03:18:24;101317.41;;;17.20;82.11
65758;BME280;52495;52.208;5.158;2022-08-19T03:20:52;101317.59;;;17.16;81.96
65758;BME280;52495;52.208;5.158;2022-08-19T03:23:20;101317.69;;;17.12;82.04
65758;BME280;52495;52.208;5.158;2022-08-19T03:25:49;101312.72;;;17.06;82.19
65758;BME280;52495;52.208;5.158;2022-08-19T03:28:16;101304.25;;;16.99;82.64
65758;BME280;52495;52.208;5.158;2022-08-19T03:30:55;101302.63;;;16.97;82.84
65758;BME280;52495;52.208;5.158;2022-08-19T03:33:23;101308.75;;;16.96;82.67
65758;BME280;52495;52.208;5.158;2022-08-19T03:36:04;101301.97;;;16.90;82.63
65758;BME280;52495;52.208;5.158;2022-08-19T03:38:31;101304.66;;;16.89;82.39
65758;BME280;52495;52.208;5.158;2022-08-19T03:41:04;101306.47;;;16.85;82.59
65758;BME280;52495;52.208;5.158;2022-08-19T03:43:32;101302.06;;;16.87;82.70
65758;BME280;52495;52.208;5.158;2022-08-19T03:46:01;101301.22;;;16.87;82.50
65758;BME280;52495;52.208;5.158;2022-08-19T03:48:29;101302.06;;;16.87;82.29
65758;BME280;52495;52.208;5.158;2022-08-19T03:50:58;101297.03;;;16.82;82.28
65758;BME280;52495;52.208;5.158;2022-08-19T03:53:25;101304.97;;;16.79;82.13
65758;BME280;52495;52.208;5.158;2022-08-19T03:55:53;101306.03;;;16.74;82.32
65758;BME280;52495;52.208;5.158;2022-08-19T03:58:22;101304.31;;;16.73;82.49
65758;BME280;52495;52.208;5.158;2022-08-19T04:00:49;101307.81;;;16.73;82.67
65758;BME280;52495;52.208;5.158;2022-08-19T04:03:16;101312.06;;;16.76;82.59
65758;BME280;52495;52.208;5.158;2022-08-19T04:05:45;101310.16;;;16.79;82.74
65758;BME280;52495;52.208;5.158;2022-08-19T04:08:13;101313.47;;;16.84;82.41
65758;BME280;52495;52.208;5.158;2022-08-19T04:10:40;101315.09;;;16.87;82.51
65758;BME280;52495;52.208;5.158;2022-08-19T04:13:07;101305.59;;;16.86;82.42
65758;BME280;52495;52.208;5.158;2022-08-19T04:15:38;101313.41;;;16.86;82.55
65758;BME280;52495;52.208;5.158;2022-08-19T04:18:07;101307.28;;;16.87;82.59
65758;BME280;52495;52.208;5.158;2022-08-19T04:20:39;101299.53;;;16.86;82.67
65758;BME280;52495;52.208;5.158;2022-08-19T04:23:05;101305.66;;;16.84;82.77
65758;BME280;52495;52.208;5.158;2022-08-19T04:25:36;101303.16;;;16.81;82.77
65758;BME280;52495;52.208;5.158;2022-08-19T04:28:03;101295.31;;;16.81;82.91
65758;BME280;52495;52.208;5.158;2022-08-19T04:30:30;101295.41;;;16.80;83.12
65758;BME280;52495;52.208;5.158;2022-08-19T04:32:58;101288.56;;;16.76;83.54
65758;BME280;52495;52.208;5.158;2022-08-19T04:35:25;101292.16;;;16.73;83.66
65758;BME280;52495;52.208;5.158;2022-08-19T04:37:52;101287.72;;;16.75;83.73
65758;BME280;52495;52.208;5.158;2022-08-19T04:40:19;101292.81;;;16.78;83.73
65758;BME280;52495;52.208;5.158;2022-08-19T04:43:03;101292.78;;;16.80;83.62
65758;BME280;52495;52.208;5.158;2022-08-19T04:45:30;101300.53;;;16.81;83.51
65758;BME280;52495;52.208;5.158;2022-08-19T04:47:56;101304.84;;;16.82;83.44
65758;BME280;52495;52.208;5.158;2022-08-19T04:50:25;101302.25;;;16.82;83.45
65758;BME280;52495;52.208;5.158;2022-08-19T04:52:52;101303.94;;;16.83;83.69
65758;BME280;52495;52.208;5.158;2022-08-19T04:55:20;101306.63;;;16.82;83.70
65758;BME280;52495;52.208;5.158;2022-08-19T04:57:47;101313.59;;;16.81;83.50
65758;BME280;52495;52.208;5.158;2022-08-19T05:00:16;101326.63;;;16.81;83.60
65758;BME280;52495;52.208;5.158;2022-08-19T05:02:42;101319.69;;;16.80;83.77
65758;BME280;52495;52.208;5.158;2022-08-19T05:05:09;101321.56;;;16.77;83.92
65758;BME280;52495;52.208;5.158;2022-08-19T05:07:38;101325.19;;;16.73;84.31
65758;BME280;52495;52.208;5.158;2022-08-19T05:10:06;101331.13;;;16.76;84.74
65758;BME280;52495;52.208;5.158;2022-08-19T05:12:33;101342.44;;;16.77;84.88
65758;BME280;52495;52.208;5.158;2022-08-19T05:15:01;101348.38;;;16.80;85.24
65758;BME280;52495;52.208;5.158;2022-08-19T05:17:30;101341.28;;;16.84;85.20
65758;BME280;52495;52.208;5.158;2022-08-19T05:19:57;101336.78;;;16.89;85.40
65758;BME280;52495;52.208;5.158;2022-08-19T05:22:44;101340.94;;;16.95;85.69
65758;BME280;52495;52.208;5.158;2022-08-19T05:25:18;101341.53;;;17.03;85.82
65758;BME280;52495;52.208;5.158;2022-08-19T05:27:45;101326.50;;;17.10;86.48
65758;BME280;52495;52.208;5.158;2022-08-19T05:30:12;101324.53;;;17.17;86.70
65758;BME280;52495;52.208;5.158;2022-08-19T05:32:40;101321.63;;;17.24;87.01
65758;BME280;52495;52.208;5.158;2022-08-19T05:35:07;101325.72;;;17.32;87.40
65758;BME280;52495;52.208;5.158;2022-08-19T05:37:34;101328.03;;;17.39;87.73
65758;BME280;52495;52.208;5.158;2022-08-19T05:40:03;101325.16;;;17.45;88.26
65758;BME280;52495;52.208;5.158;2022-08-19T05:42:30;101333.50;;;17.55;88.41
65758;BME280;52495;52.208;5.158;2022-08-19T05:44:56;101331.44;;;17.64;88.74
65758;BME280;52495;52.208;5.158;2022-08-19T05:47:23;101319.84;;;17.71;88.79
65758;BME280;52495;52.208;5.158;2022-08-19T05:49:50;101315.28;;;17.76;89.16
65758;BME280;52495;52.208;5.158;2022-08-19T05:52:18;101324.59;;;17.83;89.15
65758;BME280;52495;52.208;5.158;2022-08-19T05:54:46;101320.00;;;17.88;89.36
65758;BME280;52495;52.208;5.158;2022-08-19T05:57:14;101325.00;;;17.95;89.57
65758;BME280;52495;52.208;5.158;2022-08-19T05:59:42;101310.88;;;18.00;89.87
65758;BME280;52495;52.208;5.158;2022-08-19T06:02:11;101313.13;;;18.10;89.99
65758;BME280;52495;52.208;5.158;2022-08-19T06:04:38;101313.72;;;18.16;90.28
65758;BME280;52495;52.208;5.158;2022-08-19T06:07:08;101317.81;;;18.22;90.79
65758;BME280;52495;52.208;5.158;2022-08-19T06:09:34;101308.78;;;18.29;91.12
65758;BME280;52495;52.208;5.158;2022-08-19T06:12:03;101316.38;;;18.35;91.18
65758;BME280;52495;52.208;5.158;2022-08-19T06:14:33;101324.91;;;18.41;91.37
65758;BME280;52495;52.208;5.158;2022-08-19T06:17:01;101319.38;;;18.47;91.43
65758;BME280;52495;52.208;5.158;2022-08-19T06:19:29;101318.41;;;18.49;91.39
65758;BME280;52495;52.208;5.158;2022-08-19T06:21:58;101321.66;;;18.55;91.92
65758;BME280;52495;52.208;5.158;2022-08-19T06:24:27;101317.31;;;18.55;92.45
65758;BME280;52495;52.208;5.158;2022-08-19T06:26:55;101312.91;;;18.56;93.37
65758;BME280;52495;52.208;5.158;2022-08-19T06:29:24;101313.56;;;18.61;93.13
65758;BME280;52495;52.208;5.158;2022-08-19T06:31:54;101317.22;;;18.57;93.84
65758;BME280;52495;52.208;5.158;2022-08-19T06:34:23;101316.84;;;18.66;93.80
65758;BME280;52495;52.208;5.158;2022-08-19T06:36:51;101314.81;;;18.73;93.59
65758;BME280;52495;52.208;5.158;2022-08-19T06:39:20;101324.13;;;18.78;93.48
65758;BME280;52495;52.208;5.158;2022-08-19T06:41:49;101306.63;;;18.80;93.66
65758;BME280;52495;52.208;5.158;2022-08-19T06:44:17;101322.97;;;18.86;93.58
65758;BME280;52495;52.208;5.158;2022-08-19T06:46:44;101318.44;;;18.89;93.74
65758;BME280;52495;52.208;5.158;2022-08-19T06:49:13;101316.59;;;18.91;93.43
65758;BME280;52495;52.208;5.158;2022-08-19T06:51:41;101320.84;;;18.94;93.44
65758;BME280;52495;52.208;5.158;2022-08-19T06:54:09;101321.66;;;18.96;93.39
65758;BME280;52495;52.208;5.158;2022-08-19T06:56:37;101316.28;;;18.99;93.48
65758;BME280;52495;52.208;5.158;2022-08-19T06:59:06;101330.84;;;19.05;93.46
65758;BME280;52495;52.208;5.158;2022-08-19T07:01:38;101338.72;;;19.05;93.17
65758;BME280;52495;52.208;5.158;2022-08-19T07:04:06;101326.47;;;19.05;93.16
65758;BME280;52495;52.208;5.158;2022-08-19T07:06:36;101323.00;;;19.05;93.02
65758;BME280;52495;52.208;5.158;2022-08-19T07:09:03;101330.72;;;19.08;93.07
65758;BME280;52495;52.208;5.158;2022-08-19T07:11:30;101329.84;;;19.07;92.83
65758;BME280;52495;52.208;5.158;2022-08-19T07:13:57;101330.59;;;19.11;92.72
65758;BME280;52495;52.208;5.158;2022-08-19T07:16:24;101343.69;;;19.11;92.66
65758;BME280;52495;52.208;5.158;2022-08-19T07:18:51;101338.44;;;19.11;92.57
65758;BME280;52495;52.208;5.158;2022-08-19T07:21:20;101339.06;;;19.16;92.71
65758;BME280;52495;52.208;5.158;2022-08-19T07:23:49;101344.13;;;19.21;92.71
65758;BME280;52495;52.208;5.158;2022-08-19T07:26:24;101351.03;;;19.22;92.36
65758;BME280;52495;52.208;5.158;2022-08-19T07:28:51;101344.81;;;19.24;92.28
65758;BME280;52495;52.208;5.158;2022-08-19T07:31:20;101347.28;;;19.28;92.50
65758;BME280;52495;52.208;5.158;2022-08-19T07:33:49;101346.22;;;19.32;92.32
65758;BME280;52495;52.208;5.158;2022-08-19T07:36:19;101342.63;;;19.34;92.12
65758;BME280;52495;52.208;5.158;2022-08-19T07:38:50;101351.19;;;19.38;91.94
65758;BME280;52495;52.208;5.158;2022-08-19T07:41:21;101345.72;;;19.42;92.12
65758;BME280;52495;52.208;5.158;2022-08-19T07:43:49;101348.19;;;19.46;91.91
65758;BME280;52495;52.208;5.158;2022-08-19T07:46:16;101346.22;;;19.51;91.86
65758;BME280;52495;52.208;5.158;2022-08-19T07:48:44;101338.22;;;19.54;91.47
65758;BME280;52495;52.208;5.158;2022-08-19T07:51:13;101345.72;;;19.62;91.47
65758;BME280;52495;52.208;5.158;2022-08-19T07:53:40;101354.06;;;19.70;91.13
65758;BME280;52495;52.208;5.158;2022-08-19T07:56:08;101351.16;;;19.76;90.90
65758;BME280;52495;52.208;5.158;2022-08-19T07:58:38;101354.31;;;19.83;90.70
65758;BME280;52495;52.208;5.158;2022-08-19T08:01:06;101361.75;;;19.92;90.61
65758;BME280;52495;52.208;5.158;2022-08-19T08:03:33;101356.31;;;19.97;89.99
65758;BME280;52495;52.208;5.158;2022-08-19T08:06:17;101364.72;;;20.04;89.61
65758;BME280;52495;52.208;5.158;2022-08-19T08:09:03;101367.25;;;20.05;89.14
65758;BME280;52495;52.208;5.158;2022-08-19T08:11:51;101371.34;;;20.11;88.96
65758;BME280;52495;52.208;5.158;2022-08-19T08:14:21;101365.13;;;20.13;89.03
65758;BME280;52495;52.208;5.158;2022-08-19T08:16:49;101368.97;;;20.24;88.41
65758;BME280;52495;52.208;5.158;2022-08-19T08:19:18;101371.44;;;20.27;88.68
65758;BME280;52495;52.208;5.158;2022-08-19T08:21:46;101383.41;;;20.32;88.42
65758;BME280;52495;52.208;5.158;2022-08-19T08:24:13;101378.78;;;20.38;88.21
65758;BME280;52495;52.208;5.158;2022-08-19T08:26:40;101389.88;;;20.43;87.73
65758;BME280;52495;52.208;5.158;2022-08-19T08:29:10;101386.13;;;20.49;87.35
65758;BME280;52495;52.208;5.158;2022-08-19T08:31:38;101381.47;;;20.54;87.23
65758;BME280;52495;52.208;5.158;2022-08-19T08:34:06;101374.06;;;20.62;87.01
65758;BME280;52495;52.208;5.158;2022-08-19T08:36:36;101379.06;;;20.67;86.49
65758;BME280;52495;52.208;5.158;2022-08-19T08:39:05;101373.44;;;20.74;87.08
65758;BME280;52495;52.208;5.158;2022-08-19T08:41:38;101375.38;;;20.88;86.13
65758;BME280;52495;52.208;5.158;2022-08-19T08:44:14;101380.06;;;20.99;85.19
65758;BME280;52495;52.208;5.158;2022-08-19T08:46:47;101382.34;;;21.05;84.03
65758;BME280;52495;52.208;5.158;2022-08-19T08:49:24;101385.44;;;21.14;83.07
65758;BME280;52495;52.208;5.158;2022-08-19T08:51:59;101388.84;;;21.16;83.18
65758;BME280;52495;52.208;5.158;2022-08-19T08:54:31;101382.56;;;21.18;82.64
65758;BME280;52495;52.208;5.158;2022-08-19T08:56:59;101384.34;;;21.18;82.50
65758;BME280;52495;52.208;5.158;2022-08-19T08:59:30;101378.91;;;21.21;82.33
65758;BME280;52495;52.208;5.158;2022-08-19T09:01:59;101389.34;;;21.22;82.22
65758;BME280;52495;52.208;5.158;2022-08-19T09:04:26;101380.53;;;21.23;82.12
65758;BME280;52495;52.208;5.158;2022-08-19T09:06:58;101379.44;;;21.28;81.89
65758;BME280;52495;52.208;5.158;2022-08-19T09:09:33;101375.53;;;21.35;82.13
65758;BME280;52495;52.208;5.158;2022-08-19T09:12:05;101366.22;;;21.45;81.55
65758;BME280;52495;52.208;5.158;2022-08-19T09:14:41;101378.78;;;21.56;81.16
65758;BME280;52495;52.208;5.158;2022-08-19T09:17:11;101384.34;;;21.67;80.53
65758;BME280;52495;52.208;5.158;2022-08-19T09:19:50;101384.56;;;21.79;80.04
65758;BME280;52495;52.208;5.158;2022-08-19T09:22:17;101379.28;;;21.95;79.76
65758;BME280;52495;52.208;5.158;2022-08-19T09:24:47;101386.13;;;22.13;79.18
65758;BME280;52495;52.208;5.158;2022-08-19T09:27:14;101391.03;;;22.20;77.65
65758;BME280;52495;52.208;5.158;2022-08-19T09:29:42;101388.41;;;22.20;77.12
65758;BME280;52495;52.208;5.158;2022-08-19T09:32:09;101390.38;;;22.16;77.24
65758;BME280;52495;52.208;5.158;2022-08-19T09:34:35;101392.06;;;22.17;77.07
65758;BME280;52495;52.208;5.158;2022-08-19T09:37:02;101389.06;;;22.23;77.24
65758;BME280;52495;52.208;5.158;2022-08-19T09:39:30;101380.72;;;22.31;76.97
65758;BME280;52495;52.208;5.158;2022-08-19T09:41:57;101387.44;;;22.37;77.02
65758;BME280;52495;52.208;5.158;2022-08-19T09:44:23;101385.47;;;22.40;76.50
65758;BME280;52495;52.208;5.158;2022-08-19T09:46:52;101387.09;;;22.43;76.28
65758;BME280;52495;52.208;5.158;2022-08-19T09:49:19;101391.53;;;22.42;76.32
65758;BME280;52495;52.208;5.158;2022-08-19T09:51:58;101388.50;;;22.49;76.22
65758;BME280;52495;52.208;5.158;2022-08-19T09:54:26;101389.84;;;22.56;76.05
65758;BME280;52495;52.208;5.158;2022-08-19T09:56:54;101390.50;;;22.59;75.61
65758;BME280;52495;52.208;5.158;2022-08-19T09:59:21;101385.72;;;22.66;75.62
65758;BME280;52495;52.208;5.158;2022-08-19T10:01:49;101386.88;;;22.77;75.60
65758;BME280;52495;52.208;5.158;2022-08-19T10:04:21;101391.22;;;22.92;75.23
65758;BME280;52495;52.208;5.158;2022-08-19T10:07:11;101386.59;;;23.10;74.43
65758;BME280;52495;52.208;5.158;2022-08-19T10:09:41;101387.38;;;23.27;73.74
65758;BME280;52495;52.208;5.158;2022-08-19T10:12:10;101383.69;;;23.44;73.04
65758;BME280;52495;52.208;5.158;2022-08-19T10:14:37;101382.78;;;23.58;72.49
65758;BME280;52495;52.208;5.158;2022-08-19T10:17:04;101374.09;;;23.70;71.75
65758;BME280;52495;52.208;5.158;2022-08-19T10:19:32;101374.25;;;23.82;71.32
65758;BME280;52495;52.208;5.158;2022-08-19T10:22:04;101371.56;;;23.96;71.16
65758;BME280;52495;52.208;5.158;2022-08-19T10:24:32;101371.50;;;24.10;70.76
65758;BME280;52495;52.208;5.158;2022-08-19T10:27:00;101370.59;;;24.24;70.43
65758;BME280;52495;52.208;5.158;2022-08-19T10:29:29;101368.00;;;24.37;69.53
65758;BME280;52495;52.208;5.158;2022-08-19T10:31:57;101361.88;;;24.50;68.97
65758;BME280;52495;52.208;5.158;2022-08-19T10:34:26;101367.91;;;24.65;68.10
65758;BME280;52495;52.208;5.158;2022-08-19T10:36:55;101362.00;;;24.74;68.21
65758;BME280;52495;52.208;5.158;2022-08-19T10:39:22;101362.22;;;24.71;67.31
65758;BME280;52495;52.208;5.158;2022-08-19T10:41:49;101364.78;;;24.73;67.21
65758;BME280;52495;52.208;5.158;2022-08-19T10:44:16;101367.63;;;24.82;66.70
65758;BME280;52495;52.208;5.158;2022-08-19T10:46:43;101360.44;;;24.84;66.67
65758;BME280;52495;52.208;5.158;2022-08-19T10:49:12;101354.72;;;24.78;66.82
65758;BME280;52495;52.208;5.158;2022-08-19T10:51:40;101362.88;;;24.75;67.19
65758;BME280;52495;52.208;5.158;2022-08-19T10:54:27;101352.53;;;24.72;67.10
65758;BME280;52495;52.208;5.158;2022-08-19T10:57:07;101358.81;;;24.69;67.37
65758;BME280;52495;52.208;5.158;2022-08-19T10:59:35;101355.53;;;24.65;67.51
65758;BME280;52495;52.208;5.158;2022-08-19T11:02:04;101361.69;;;24.66;67.50
65758;BME280;52495;52.208;5.158;2022-08-19T11:04:31;101361.69;;;24.66;66.36
65758;BME280;52495;52.208;5.158;2022-08-19T11:06:58;101362.84;;;24.62;65.25
65758;BME280;52495;52.208;5.158;2022-08-19T11:09:27;101363.66;;;24.62;65.18
65758;BME280;52495;52.208;5.158;2022-08-19T11:11:54;101369.03;;;24.48;65.17
65758;BME280;52495;52.208;5.158;2022-08-19T11:14:22;101372.75;;;24.45;65.49
65758;BME280;52495;52.208;5.158;2022-08-19T11:16:51;101364.41;;;24.51;65.69
65758;BME280;52495;52.208;5.158;2022-08-19T11:19:21;101365.06;;;24.55;65.94
65758;BME280;52495;52.208;5.158;2022-08-19T11:21:50;101363.38;;;24.54;66.26
65758;BME280;52495;52.208;5.158;2022-08-19T11:24:19;101364.41;;;24.51;65.96
65758;BME280;52495;52.208;5.158;2022-08-19T11:26:49;101361.53;;;24.29;65.73
65758;BME280;52495;52.208;5.158;2022-08-19T11:29:18;101363.47;;;24.39;66.22
65758;BME280;52495;52.208;5.158;2022-08-19T11:31:48;101367.56;;;24.44;66.09
65758;BME280;52495;52.208;5.158;2022-08-19T11:34:17;101367.56;;;24.44;66.27
65758;BME280;52495;52.208;5.158;2022-08-19T11:36:46;101363.53;;;24.38;66.64
65758;BME280;52495;52.208;5.158;2022-08-19T11:39:16;101359.97;;;24.39;66.88
65758;BME280;52495;52.208;5.158;2022-08-19T11:41:43;101364.81;;;24.32;67.31
65758;BME280;52495;52.208;5.158;2022-08-19T11:44:11;101359.31;;;24.22;67.30
65758;BME280;52495;52.208;5.158;2022-08-19T11:46:40;101361.81;;;24.11;68.97
65758;BME280;52495;52.208;5.158;2022-08-19T11:49:12;101373.00;;;23.60;73.44
65758;BME280;52495;52.208;5.158;2022-08-19T11:51:39;101371.31;;;23.59;73.97
65758;BME280;52495;52.208;5.158;2022-08-19T11:54:07;101384.31;;;23.47;75.03
65758;BME280;52495;52.208;5.158;2022-08-19T11:56:36;101383.31;;;23.36;75.80
65758;BME280;52495;52.208;5.158;2022-08-19T11:59:04;101379.91;;;23.33;76.59
65758;BME280;52495;52.208;5.158;2022-08-19T12:01:32;101383.91;;;23.26;77.13
65758;BME280;52495;52.208;5.158;2022-08-19T12:03:58;101380.31;;;23.27;77.71
65758;BME280;52495;52.208;5.158;2022-08-19T12:06:27;101384.44;;;23.31;77.36
65758;BME280;52495;52.208;5.158;2022-08-19T12:08:54;101375.06;;;23.27;76.98
65758;BME280;52495;52.208;5.158;2022-08-19T12:11:22;101380.13;;;23.30;77.41
65758;BME280;52495;52.208;5.158;2022-08-19T12:13:48;101382.78;;;23.30;77.14
65758;BME280;52495;52.208;5.158;2022-08-19T12:16:18;101380.97;;;23.31;77.43
65758;BME280;52495;52.208;5.158;2022-08-19T12:18:47;101380.78;;;23.34;77.10
65758;BME280;52495;52.208;5.158;2022-08-19T12:21:14;101378.50;;;23.28;76.60
65758;BME280;52495;52.208;5.158;2022-08-19T12:23:42;101398.31;;;23.21;76.85
65758;BME280;52495;52.208;5.158;2022-08-19T12:26:10;101385.88;;;23.23;76.37
65758;BME280;52495;52.208;5.158;2022-08-19T12:28:38;101381.59;;;23.34;77.05
65758;BME280;52495;52.208;5.158;2022-08-19T12:31:04;101389.13;;;23.41;76.30
65758;BME280;52495;52.208;5.158;2022-08-19T12:33:32;101381.13;;;23.57;75.92
65758;BME280;52495;52.208;5.158;2022-08-19T12:36:03;101376.81;;;23.69;75.39
65758;BME280;52495;52.208;5.158;2022-08-19T12:38:31;101366.72;;;23.75;74.32
65758;BME280;52495;52.208;5.158;2022-08-19T12:40:59;101369.09;;;23.80;73.35
65758;BME280;52495;52.208;5.158;2022-08-19T12:43:28;101362.16;;;23.92;72.59
65758;BME280;52495;52.208;5.158;2022-08-19T12:45:55;101363.31;;;23.88;72.23
65758;BME280;52495;52.208;5.158;2022-08-19T12:48:22;101373.34;;;23.68;71.83
65758;BME280;52495;52.208;5.158;2022-08-19T12:50:49;101376.56;;;23.73;72.17
65758;BME280;52495;52.208;5.158;2022-08-19T12:53:17;101370.72;;;23.68;71.88
65758;BME280;52495;52.208;5.158;2022-08-19T12:55:45;101369.03;;;23.67;72.57
65758;BME280;52495;52.208;5.158;2022-08-19T12:58:12;101365.75;;;23.63;73.16